sensor_id;sensor_type;location;lat;lon;timestamp;temperature;humidity
20670;DHT22;10494;50.868;4.180;2023-04-01T00:00:30;10.30;99.90
20670;DHT22;10494;50.868;4.180;2023-04-01T00:02:56;10.10;99.90
20670;DHT22;10494;50.868;4.180;2023-04-01T00:05:22;10.20;99.90
20670;DHT22;10494;50.868;4.180;2023-04-01T00:07:49;10.10;99.90
20670;DHT22;10494;50.868;4.180;2023-04-01T00:10:16;10.10;99.90
20670;DHT22;10494;50.868;4.180;2023-04-01T00:12:41;10.10;99.90
20670;DHT22;10494;50.868;4.180;2023-04-01T00:15:09;10.10;99.90
20670;DHT22;10494;50.868;4.180;2023-04-01T00:17:35;10.10;99.90
20670;DHT22;10494;50.868;4.180;2023-04-01T00:20:02;10.10;99.90
20670;DHT22;10494;50.868;4.180;2023-04-01T00:22:28;10.10;99.90
20670;DHT22;10494;50.868;4.180;2023-04-01T00:24:54;10.10;99.90
20670;DHT22;10494;50.868;4.180;2023-04-01T00:27:19;10.20;99.90
20670;DHT22;10494;50.868;4.180;2023-04-01T00:29:46;10.10;99.90
20670;DHT22;10494;50.868;4.180;2023-04-01T00:32:14;10.20;99.90
20670;DHT22;10494;50.868;4.180;2023-04-01T00:34:40;10.20;99.90
20670;DHT22;10494;50.868;4.180;2023-04-01T00:37:06;10.20;99.90
20670;DHT22;10494;50.868;4.180;2023-04-01T00:39:34;10.30;99.90
20670;DHT22;10494;50.868;4.180;2023-04-01T00:42:00;10.40;99.90
20670;DHT22;10494;50.868;4.180;2023-04-01T00:44:29;10.40;99.90
20670;DHT22;10494;50.868;4.180;2023-04-01T00:46:56;10.40;99.90
20670;DHT22;10494;50.868;4.180;2023-04-01T00:49:25;10.40;99.90
20670;DHT22;10494;50.868;4.180;2023-04-01T00:51:54;10.50;99.90
20670;DHT22;10494;50.868;4.180;2023-04-01T00:54:23;10.40;99.90
20670;DHT22;10494;50.868;4.180;2023-04-01T00:57:02;10.40;99.90
20670;DHT22;10494;50.868;4.180;2023-04-01T00:59:35;10.30;99.90
20670;DHT22;10494;50.868;4.180;2023-04-01T01:02:04;10.40;99.90
20670;DHT22;10494;50.868;4.180;2023-04-01T01:04:33;10.30;99.90
20670;DHT22;10494;50.868;4.180;2023-04-01T01:12:35;10.20;99.90
20670;DHT22;10494;50.868;4.180;2023-04-01T01:18:19;10.30;99.90
20670;DHT22;10494;50.868;4.180;2023-04-01T01:21:31;10.20;99.90
20670;DHT22;10494;50.868;4.180;2023-04-01T01:37:18;10.50;99.90
20670;DHT22;10494;50.868;4.180;2023-04-01T01:39:50;10.60;99.90
20670;DHT22;10494;50.868;4.180;2023-04-01T01:42:18;10.50;99.90
20670;DHT22;10494;50.868;4.180;2023-04-01T01:44:46;10.40;99.90
20670;DHT22;10494;50.868;4.180;2023-04-01T01:47:14;10.50;99.90
20670;DHT22;10494;50.868;4.180;2023-04-01T01:49:42;10.40;99.90
20670;DHT22;10494;50.868;4.180;2023-04-01T01:52:08;10.40;99.90
20670;DHT22;10494;50.868;4.180;2023-04-01T01:54:34;10.40;99.90
20670;DHT22;10494;50.868;4.180;2023-04-01T01:57:07;10.60;99.90
20670;DHT22;10494;50.868;4.180;2023-04-01T01:59:36;10.60;99.90
20670;DHT22;10494;50.868;4.180;2023-04-01T02:02:03;10.50;99.90
20670;DHT22;10494;50.868;4.180;2023-04-01T02:04:34;10.60;99.90
20670;DHT22;10494;50.868;4.180;2023-04-01T02:07:07;10.40;99.90
20670;DHT22;10494;50.868;4.180;2023-04-01T02:09:34;10.40;99.90
20670;DHT22;10494;50.868;4.180;2023-04-01T02:12:06;10.40;99.90
20670;DHT22;10494;50.868;4.180;2023-04-01T02:14:55;10.40;99.90
20670;DHT22;10494;50.868;4.180;2023-04-01T02:17:25;10.40;99.90
20670;DHT22;10494;50.868;4.180;2023-04-01T02:19:57;10.30;99.90
20670;DHT22;10494;50.868;4.180;2023-04-01T02:22:37;10.30;99.90
20670;DHT22;10494;50.868;4.180;2023-04-01T02:25:10;10.30;99.90
20670;DHT22;10494;50.868;4.180;2023-04-01T02:27:37;10.30;99.90
20670;DHT22;10494;50.868;4.180;2023-04-01T02:30:03;10.20;99.90
20670;DHT22;10494;50.868;4.180;2023-04-01T02:32:31;10.20;99.90
20670;DHT22;10494;50.868;4.180;2023-04-01T02:34:57;10.20;99.90
20670;DHT22;10494;50.868;4.180;2023-04-01T02:37:25;10.20;99.90
20670;DHT22;10494;50.868;4.180;2023-04-01T02:39:50;10.30;99.90
20670;DHT22;10494;50.868;4.180;2023-04-01T02:42:16;10.20;99.90
20670;DHT22;10494;50.868;4.180;2023-04-01T02:44:42;10.30;99.90
20670;DHT22;10494;50.868;4.180;2023-04-01T02:47:07;10.30;99.90
20670;DHT22;10494;50.868;4.180;2023-04-01T02:49:33;10.30;99.90
20670;DHT22;10494;50.868;4.180;2023-04-01T02:51:58;10.30;99.90
20670;DHT22;10494;50.868;4.180;2023-04-01T02:54:24;10.30;99.90
20670;DHT22;10494;50.868;4.180;2023-04-01T02:56:50;10.40;99.90
20670;DHT22;10494;50.868;4.180;2023-04-01T02:59:15;10.30;99.90
20670;DHT22;10494;50.868;4.180;2023-04-01T03:01:41;10.20;99.90
20670;DHT22;10494;50.868;4.180;2023-04-01T03:04:06;10.10;99.90
20670;DHT22;10494;50.868;4.180;2023-04-01T03:06:32;10.20;99.90
20670;DHT22;10494;50.868;4.180;2023-04-01T03:08:57;10.20;99.90
20670;DHT22;10494;50.868;4.180;2023-04-01T03:11:23;10.30;99.90
20670;DHT22;10494;50.868;4.180;2023-04-01T03:13:49;10.30;99.90
20670;DHT22;10494;50.868;4.180;2023-04-01T03:16:14;10.30;99.90
20670;DHT22;10494;50.868;4.180;2023-04-01T03:18:40;10.20;99.90
20670;DHT22;10494;50.868;4.180;2023-04-01T03:21:32;10.40;99.90
20670;DHT22;10494;50.868;4.180;2023-04-01T03:23:58;10.40;99.90
20670;DHT22;10494;50.868;4.180;2023-04-01T03:26:24;10.40;99.90
20670;DHT22;10494;50.868;4.180;2023-04-01T03:28:49;10.40;99.90
20670;DHT22;10494;50.868;4.180;2023-04-01T03:31:15;10.40;99.90
20670;DHT22;10494;50.868;4.180;2023-04-01T03:33:41;10.40;99.90
20670;DHT22;10494;50.868;4.180;2023-04-01T03:36:07;10.30;99.90
20670;DHT22;10494;50.868;4.180;2023-04-01T03:38:36;10.30;99.90
20670;DHT22;10494;50.868;4.180;2023-04-01T03:41:02;10.30;99.90
20670;DHT22;10494;50.868;4.180;2023-04-01T03:43:27;10.30;99.90
20670;DHT22;10494;50.868;4.180;2023-04-01T03:45:53;10.50;99.90
20670;DHT22;10494;50.868;4.180;2023-04-01T03:48:20;10.30;99.90
20670;DHT22;10494;50.868;4.180;2023-04-01T03:50:46;10.30;99.90
20670;DHT22;10494;50.868;4.180;2023-04-01T03:53:12;10.30;99.90
20670;DHT22;10494;50.868;4.180;2023-04-01T03:55:38;10.30;99.90
20670;DHT22;10494;50.868;4.180;2023-04-01T03:58:05;10.30;99.90
20670;DHT22;10494;50.868;4.180;2023-04-01T04:00:32;10.20;99.90
20670;DHT22;10494;50.868;4.180;2023-04-01T04:02:58;10.20;99.90
20670;DHT22;10494;50.868;4.180;2023-04-01T04:05:24;10.40;99.90
20670;DHT22;10494;50.868;4.180;2023-04-01T04:07:51;10.30;99.90
20670;DHT22;10494;50.868;4.180;2023-04-01T04:10:17;10.30;99.90
20670;DHT22;10494;50.868;4.180;2023-04-01T04:12:42;10.30;99.90
20670;DHT22;10494;50.868;4.180;2023-04-01T04:15:09;10.20;99.90
20670;DHT22;10494;50.868;4.180;2023-04-01T04:17:34;10.20;99.90
20670;DHT22;10494;50.868;4.180;2023-04-01T04:20:00;10.20;99.90
20670;DHT22;10494;50.868;4.180;2023-04-01T04:22:26;10.10;99.90
20670;DHT22;10494;50.868;4.180;2023-04-01T04:24:52;10.10;99.90
20670;DHT22;10494;50.868;4.180;2023-04-01T04:27:17;10.30;99.90
20670;DHT22;10494;50.868;4.180;2023-04-01T04:29:43;10.30;99.90
20670;DHT22;10494;50.868;4.180;2023-04-01T04:32:09;10.30;99.90
20670;DHT22;10494;50.868;4.180;2023-04-01T04:34:34;10.30;99.90
20670;DHT22;10494;50.868;4.180;2023-04-01T04:37:00;10.30;99.90
20670;DHT22;10494;50.868;4.180;2023-04-01T04:39:25;10.20;99.90
20670;DHT22;10494;50.868;4.180;2023-04-01T04:41:51;10.10;99.90
20670;DHT22;10494;50.868;4.180;2023-04-01T04:44:16;10.10;99.90
20670;DHT22;10494;50.868;4.180;2023-04-01T04:46:42;10.00;99.90
20670;DHT22;10494;50.868;4.180;2023-04-01T04:49:08;10.10;99.90
20670;DHT22;10494;50.868;4.180;2023-04-01T04:51:33;10.20;99.90
20670;DHT22;10494;50.868;4.180;2023-04-01T04:54:04;10.30;99.90
20670;DHT22;10494;50.868;4.180;2023-04-01T04:56:30;10.30;99.90
20670;DHT22;10494;50.868;4.180;2023-04-01T04:58:56;10.40;99.90
20670;DHT22;10494;50.868;4.180;2023-04-01T05:01:22;10.30;99.90
20670;DHT22;10494;50.868;4.180;2023-04-01T05:03:48;10.20;99.90
20670;DHT22;10494;50.868;4.180;2023-04-01T05:06:14;10.20;99.90
20670;DHT22;10494;50.868;4.180;2023-04-01T05:08:41;10.20;99.90
20670;DHT22;10494;50.868;4.180;2023-04-01T05:11:14;10.10;99.90
20670;DHT22;10494;50.868;4.180;2023-04-01T05:13:40;10.10;99.90
20670;DHT22;10494;50.868;4.180;2023-04-01T05:16:10;10.00;99.90
20670;DHT22;10494;50.868;4.180;2023-04-01T05:18:36;10.10;99.90
20670;DHT22;10494;50.868;4.180;2023-04-01T05:21:01;10.20;99.90
20670;DHT22;10494;50.868;4.180;2023-04-01T05:23:27;10.10;99.90
20670;DHT22;10494;50.868;4.180;2023-04-01T05:25:52;10.00;99.90
20670;DHT22;10494;50.868;4.180;2023-04-01T05:28:19;10.00;99.90
20670;DHT22;10494;50.868;4.180;2023-04-01T05:30:45;10.10;99.90
20670;DHT22;10494;50.868;4.180;2023-04-01T05:33:12;10.10;99.90
20670;DHT22;10494;50.868;4.180;2023-04-01T05:35:38;10.20;99.90
20670;DHT22;10494;50.868;4.180;2023-04-01T05:38:04;10.10;99.90
20670;DHT22;10494;50.868;4.180;2023-04-01T05:40:31;10.10;99.90
20670;DHT22;10494;50.868;4.180;2023-04-01T05:42:57;10.10;99.90
20670;DHT22;10494;50.868;4.180;2023-04-01T05:45:23;10.20;99.90
20670;DHT22;10494;50.868;4.180;2023-04-01T05:47:49;10.10;99.90
20670;DHT22;10494;50.868;4.180;2023-04-01T05:50:14;10.20;99.90
20670;DHT22;10494;50.868;4.180;2023-04-01T05:52:40;10.30;99.90
20670;DHT22;10494;50.868;4.180;2023-04-01T05:55:06;10.10;99.90
20670;DHT22;10494;50.868;4.180;2023-04-01T05:57:32;10.10;99.90
20670;DHT22;10494;50.868;4.180;2023-04-01T05:59:58;10.20;99.90
20670;DHT22;10494;50.868;4.180;2023-04-01T06:02:24;10.10;99.90
20670;DHT22;10494;50.868;4.180;2023-04-01T06:05:03;10.10;99.90
20670;DHT22;10494;50.868;4.180;2023-04-01T06:07:29;10.10;99.90
20670;DHT22;10494;50.868;4.180;2023-04-01T06:09:54;10.20;99.90
20670;DHT22;10494;50.868;4.180;2023-04-01T06:12:38;10.20;99.90
20670;DHT22;10494;50.868;4.180;2023-04-01T06:23:29;10.10;99.90
20670;DHT22;10494;50.868;4.180;2023-04-01T06:26:22;10.10;99.90
20670;DHT22;10494;50.868;4.180;2023-04-01T06:29:07;10.10;99.90
20670;DHT22;10494;50.868;4.180;2023-04-01T06:40:20;10.30;99.90
20670;DHT22;10494;50.868;4.180;2023-04-01T06:45:47;10.20;99.90
20670;DHT22;10494;50.868;4.180;2023-04-01T06:56:19;10.30;99.90
20670;DHT22;10494;50.868;4.180;2023-04-01T07:01:18;10.30;99.90
20670;DHT22;10494;50.868;4.180;2023-04-01T07:03:57;10.30;99.90
20670;DHT22;10494;50.868;4.180;2023-04-01T07:06:35;10.30;99.90
20670;DHT22;10494;50.868;4.180;2023-04-01T07:09:06;10.20;99.90
20670;DHT22;10494;50.868;4.180;2023-04-01T07:11:35;10.30;99.90
20670;DHT22;10494;50.868;4.180;2023-04-01T07:14:22;10.30;99.90
20670;DHT22;10494;50.868;4.180;2023-04-01T07:17:06;10.30;99.90
20670;DHT22;10494;50.868;4.180;2023-04-01T07:22:39;10.40;99.90
20670;DHT22;10494;50.868;4.180;2023-04-01T07:25:15;10.40;99.90
20670;DHT22;10494;50.868;4.180;2023-04-01T07:27:42;10.40;99.90
20670;DHT22;10494;50.868;4.180;2023-04-01T07:30:18;10.40;99.90
20670;DHT22;10494;50.868;4.180;2023-04-01T07:33:04;10.40;99.90
20670;DHT22;10494;50.868;4.180;2023-04-01T07:35:36;10.40;99.90
20670;DHT22;10494;50.868;4.180;2023-04-01T07:38:15;10.40;99.90
20670;DHT22;10494;50.868;4.180;2023-04-01T07:43:35;10.40;99.90
20670;DHT22;10494;50.868;4.180;2023-04-01T07:49:08;10.40;99.90
20670;DHT22;10494;50.868;4.180;2023-04-01T07:52:00;10.30;99.90
20670;DHT22;10494;50.868;4.180;2023-04-01T07:54:38;10.30;99.90
20670;DHT22;10494;50.868;4.180;2023-04-01T07:57:20;10.30;99.90
20670;DHT22;10494;50.868;4.180;2023-04-01T08:00:07;10.30;99.90
20670;DHT22;10494;50.868;4.180;2023-04-01T08:08:19;10.50;99.90
20670;DHT22;10494;50.868;4.180;2023-04-01T08:11:21;10.60;99.90
20670;DHT22;10494;50.868;4.180;2023-04-01T08:14:22;10.60;99.90
20670;DHT22;10494;50.868;4.180;2023-04-01T08:17:07;10.60;99.90
20670;DHT22;10494;50.868;4.180;2023-04-01T08:22:09;10.60;99.90
20670;DHT22;10494;50.868;4.180;2023-04-01T08:24:45;10.60;99.90
20670;DHT22;10494;50.868;4.180;2023-04-01T08:27:31;10.60;99.90
20670;DHT22;10494;50.868;4.180;2023-04-01T08:32:55;10.60;99.90
20670;DHT22;10494;50.868;4.180;2023-04-01T08:35:36;10.80;99.90
20670;DHT22;10494;50.868;4.180;2023-04-01T08:41:25;10.80;99.90
20670;DHT22;10494;50.868;4.180;2023-04-01T09:00:41;10.60;99.90
20670;DHT22;10494;50.868;4.180;2023-04-01T09:03:41;10.70;99.90
20670;DHT22;10494;50.868;4.180;2023-04-01T09:20:02;11.00;99.90
20670;DHT22;10494;50.868;4.180;2023-04-01T09:25:45;11.10;99.90
20670;DHT22;10494;50.868;4.180;2023-04-01T09:34:38;10.90;99.90
20670;DHT22;10494;50.868;4.180;2023-04-01T09:40:53;11.00;99.90
20670;DHT22;10494;50.868;4.180;2023-04-01T09:43:06;11.10;99.90
20670;DHT22;10494;50.868;4.180;2023-04-01T09:48:43;10.90;99.90
20670;DHT22;10494;50.868;4.180;2023-04-01T09:53:59;11.00;99.90
20670;DHT22;10494;50.868;4.180;2023-04-01T09:59:38;11.30;99.90
20670;DHT22;10494;50.868;4.180;2023-04-01T10:02:38;11.60;99.90
20670;DHT22;10494;50.868;4.180;2023-04-01T10:17:08;11.80;99.90
20670;DHT22;10494;50.868;4.180;2023-04-01T10:29:06;11.60;99.90
20670;DHT22;10494;50.868;4.180;2023-04-01T10:34:29;11.60;99.90
20670;DHT22;10494;50.868;4.180;2023-04-01T10:45:09;11.80;99.90
20670;DHT22;10494;50.868;4.180;2023-04-01T10:56:37;12.00;99.90
20670;DHT22;10494;50.868;4.180;2023-04-01T11:11:09;11.80;99.90
20670;DHT22;10494;50.868;4.180;2023-04-01T11:14:09;11.90;99.90
20670;DHT22;10494;50.868;4.180;2023-04-01T11:29:56;11.70;99.90
20670;DHT22;10494;50.868;4.180;2023-04-01T11:35:28;11.90;99.90
20670;DHT22;10494;50.868;4.180;2023-04-01T11:46:33;11.90;99.90
20670;DHT22;10494;50.868;4.180;2023-04-01T11:54:49;11.90;99.90
20670;DHT22;10494;50.868;4.180;2023-04-01T12:06:02;12.10;99.90
20670;DHT22;10494;50.868;4.180;2023-04-01T12:14:44;11.80;99.90
20670;DHT22;10494;50.868;4.180;2023-04-01T12:20:45;12.20;99.90
20670;DHT22;10494;50.868;4.180;2023-04-01T12:32:05;12.10;99.90
20670;DHT22;10494;50.868;4.180;2023-04-01T12:37:24;11.80;99.90
20670;DHT22;10494;50.868;4.180;2023-04-01T12:42:56;11.80;99.90
20670;DHT22;10494;50.868;4.180;2023-04-01T13:16:29;11.50;99.90
20670;DHT22;10494;50.868;4.180;2023-04-01T13:22:06;11.40;99.90
20670;DHT22;10494;50.868;4.180;2023-04-01T13:24:51;11.20;99.90
20670;DHT22;10494;50.868;4.180;2023-04-01T13:27:25;11.20;99.90
20670;DHT22;10494;50.868;4.180;2023-04-01T13:32:47;11.10;99.90
20670;DHT22;10494;50.868;4.180;2023-04-01T13:35:43;11.20;99.90
20670;DHT22;10494;50.868;4.180;2023-04-01T13:43:42;10.90;99.90
20670;DHT22;10494;50.868;4.180;2023-04-01T13:54:56;10.90;99.90
20670;DHT22;10494;50.868;4.180;2023-04-01T13:57:52;10.90;99.90
20670;DHT22;10494;50.868;4.180;2023-04-01T14:00:44;11.00;99.90
20670;DHT22;10494;50.868;4.180;2023-04-01T14:09:19;11.20;99.90
20670;DHT22;10494;50.868;4.180;2023-04-01T14:12:02;11.30;99.90
20670;DHT22;10494;50.868;4.180;2023-04-01T14:23:13;11.60;99.90
20670;DHT22;10494;50.868;4.180;2023-04-01T14:28:54;11.20;99.90
20670;DHT22;10494;50.868;4.180;2023-04-01T14:31:55;11.30;99.90
20670;DHT22;10494;50.868;4.180;2023-04-01T14:37:32;11.40;99.90
20670;DHT22;10494;50.868;4.180;2023-04-01T14:43:32;11.20;99.90
20670;DHT22;10494;50.868;4.180;2023-04-01T14:46:36;11.30;99.90
20670;DHT22;10494;50.868;4.180;2023-04-01T14:49:43;11.10;99.90
20670;DHT22;10494;50.868;4.180;2023-04-01T14:54:43;11.10;99.90
20670;DHT22;10494;50.868;4.180;2023-04-01T14:57:13;11.10;99.90
20670;DHT22;10494;50.868;4.180;2023-04-01T14:59:51;11.10;99.90
20670;DHT22;10494;50.868;4.180;2023-04-01T15:05:42;11.20;99.90
20670;DHT22;10494;50.868;4.180;2023-04-01T15:33:11;11.40;99.90
20670;DHT22;10494;50.868;4.180;2023-04-01T15:35:50;11.40;99.90
20670;DHT22;10494;50.868;4.180;2023-04-01T15:41:46;11.30;99.90
20670;DHT22;10494;50.868;4.180;2023-04-01T15:44:51;11.10;99.90
20670;DHT22;10494;50.868;4.180;2023-04-01T16:00:31;10.80;99.90
20670;DHT22;10494;50.868;4.180;2023-04-01T16:05:27;10.60;99.90
20670;DHT22;10494;50.868;4.180;2023-04-01T16:08:00;10.60;99.90
20670;DHT22;10494;50.868;4.180;2023-04-01T16:13:48;10.70;99.90
20670;DHT22;10494;50.868;4.180;2023-04-01T16:16:25;10.70;99.90
20670;DHT22;10494;50.868;4.180;2023-04-01T16:22:00;10.90;99.90
20670;DHT22;10494;50.868;4.180;2023-04-01T16:27:18;10.90;99.90
20670;DHT22;10494;50.868;4.180;2023-04-01T16:35:12;11.00;99.90
20670;DHT22;10494;50.868;4.180;2023-04-01T16:40:57;10.90;99.90
20670;DHT22;10494;50.868;4.180;2023-04-01T16:43:35;10.80;99.90
20670;DHT22;10494;50.868;4.180;2023-04-01T16:46:33;10.60;99.90
20670;DHT22;10494;50.868;4.180;2023-04-01T16:54:45;10.80;99.90
20670;DHT22;10494;50.868;4.180;2023-04-01T16:57:21;10.80;99.90
20670;DHT22;10494;50.868;4.180;2023-04-01T17:00:02;10.80;99.90
20670;DHT22;10494;50.868;4.180;2023-04-01T17:02:35;10.90;99.90
20670;DHT22;10494;50.868;4.180;2023-04-01T17:05:11;10.80;99.90
20670;DHT22;10494;50.868;4.180;2023-04-01T17:08:25;10.90;99.90
20670;DHT22;10494;50.868;4.180;2023-04-01T17:11:00;10.90;99.90
20670;DHT22;10494;50.868;4.180;2023-04-01T17:13:35;10.70;99.90
20670;DHT22;10494;50.868;4.180;2023-04-01T17:16:13;10.70;99.90
20670;DHT22;10494;50.868;4.180;2023-04-01T17:23:38;10.60;99.90
20670;DHT22;10494;50.868;4.180;2023-04-01T17:29:10;10.60;99.90
20670;DHT22;10494;50.868;4.180;2023-04-01T17:34:30;10.70;99.90
20670;DHT22;10494;50.868;4.180;2023-04-01T17:45:21;10.50;99.90
20670;DHT22;10494;50.868;4.180;2023-04-01T17:51:10;10.50;99.90
20670;DHT22;10494;50.868;4.180;2023-04-01T17:59:26;10.40;99.90
20670;DHT22;10494;50.868;4.180;2023-04-01T18:02:31;10.30;99.90
20670;DHT22;10494;50.868;4.180;2023-04-01T18:05:27;10.30;99.90
20670;DHT22;10494;50.868;4.180;2023-04-01T18:11:00;10.10;99.90
20670;DHT22;10494;50.868;4.180;2023-04-01T18:16:41;10.00;99.90
20670;DHT22;10494;50.868;4.180;2023-04-01T18:19:36;10.10;99.90
20670;DHT22;10494;50.868;4.180;2023-04-01T18:22:19;10.10;99.90
20670;DHT22;10494;50.868;4.180;2023-04-01T18:25:05;10.00;99.90
20670;DHT22;10494;50.868;4.180;2023-04-01T18:27:40;10.10;99.90
20670;DHT22;10494;50.868;4.180;2023-04-01T18:30:27;10.00;99.90
20670;DHT22;10494;50.868;4.180;2023-04-01T18:33:09;10.00;99.90
20670;DHT22;10494;50.868;4.180;2023-04-01T18:35:53;10.00;99.90
20670;DHT22;10494;50.868;4.180;2023-04-01T18:38:35;10.00;99.90
20670;DHT22;10494;50.868;4.180;2023-04-01T18:44:14;9.90;99.90
20670;DHT22;10494;50.868;4.180;2023-04-01T18:50:12;9.80;99.90
20670;DHT22;10494;50.868;4.180;2023-04-01T18:52:44;9.90;99.90
20670;DHT22;10494;50.868;4.180;2023-04-01T18:58:10;9.80;99.90
20670;DHT22;10494;50.868;4.180;2023-04-01T19:00:41;9.80;99.90
20670;DHT22;10494;50.868;4.180;2023-04-01T19:03:28;9.80;99.90
20670;DHT22;10494;50.868;4.180;2023-04-01T19:06:00;9.80;99.90
20670;DHT22;10494;50.868;4.180;2023-04-01T19:08:28;9.90;99.90
20670;DHT22;10494;50.868;4.180;2023-04-01T19:11:05;9.90;99.90
20670;DHT22;10494;50.868;4.180;2023-04-01T19:21:58;9.60;99.90
20670;DHT22;10494;50.868;4.180;2023-04-01T19:27:34;9.60;99.90
20670;DHT22;10494;50.868;4.180;2023-04-01T19:30:32;9.60;99.90
20670;DHT22;10494;50.868;4.180;2023-04-01T19:39:23;9.50;99.90
20670;DHT22;10494;50.868;4.180;2023-04-01T19:47:24;9.40;99.90
20670;DHT22;10494;50.868;4.180;2023-04-01T19:52:57;9.40;99.90
20670;DHT22;10494;50.868;4.180;2023-04-01T19:55:38;9.30;99.90
20670;DHT22;10494;50.868;4.180;2023-04-01T19:58:28;9.30;99.90
20670;DHT22;10494;50.868;4.180;2023-04-01T20:00:58;9.20;99.90
20670;DHT22;10494;50.868;4.180;2023-04-01T20:11:30;9.40;99.90
20670;DHT22;10494;50.868;4.180;2023-04-01T20:19:55;9.30;99.90
20670;DHT22;10494;50.868;4.180;2023-04-01T20:22:24;9.20;99.90
20670;DHT22;10494;50.868;4.180;2023-04-01T20:24:59;9.30;99.90
20670;DHT22;10494;50.868;4.180;2023-04-01T20:27:35;9.40;99.90
20670;DHT22;10494;50.868;4.180;2023-04-01T20:30:26;9.50;99.90
20670;DHT22;10494;50.868;4.180;2023-04-01T20:38:41;9.50;99.90
20670;DHT22;10494;50.868;4.180;2023-04-01T20:41:12;9.60;99.90
20670;DHT22;10494;50.868;4.180;2023-04-01T20:46:44;9.70;99.90
20670;DHT22;10494;50.868;4.180;2023-04-01T20:49:27;9.50;99.90
20670;DHT22;10494;50.868;4.180;2023-04-01T21:02:42;9.50;99.90
20670;DHT22;10494;50.868;4.180;2023-04-01T21:11:09;9.30;99.90
20670;DHT22;10494;50.868;4.180;2023-04-01T21:13:47;9.30;99.90
20670;DHT22;10494;50.868;4.180;2023-04-01T21:16:24;9.30;99.90
20670;DHT22;10494;50.868;4.180;2023-04-01T21:31:41;9.30;99.90
20670;DHT22;10494;50.868;4.180;2023-04-01T21:37:19;9.70;99.90
20670;DHT22;10494;50.868;4.180;2023-04-01T21:42:41;9.40;99.90
20670;DHT22;10494;50.868;4.180;2023-04-01T21:53:57;9.10;99.90
20670;DHT22;10494;50.868;4.180;2023-04-01T22:05:06;9.10;99.90
20670;DHT22;10494;50.868;4.180;2023-04-01T22:07:36;9.10;99.90
20670;DHT22;10494;50.868;4.180;2023-04-01T22:10:26;9.20;99.90
20670;DHT22;10494;50.868;4.180;2023-04-01T22:16:04;9.20;99.90
20670;DHT22;10494;50.868;4.180;2023-04-01T22:19:01;9.20;99.90
20670;DHT22;10494;50.868;4.180;2023-04-01T22:27:06;9.20;99.90
20670;DHT22;10494;50.868;4.180;2023-04-01T22:29:53;9.10;99.90
20670;DHT22;10494;50.868;4.180;2023-04-01T22:32:46;9.10;99.90
20670;DHT22;10494;50.868;4.180;2023-04-01T22:35:32;9.00;99.90
20670;DHT22;10494;50.868;4.180;2023-04-01T22:43:17;9.00;99.90
20670;DHT22;10494;50.868;4.180;2023-04-01T22:46:06;9.00;99.90
20670;DHT22;10494;50.868;4.180;2023-04-01T22:49:03;9.00;99.90
20670;DHT22;10494;50.868;4.180;2023-04-01T22:51:41;9.00;99.90
20670;DHT22;10494;50.868;4.180;2023-04-01T22:56:47;8.90;99.90
20670;DHT22;10494;50.868;4.180;2023-04-01T22:59:39;8.80;99.90
20670;DHT22;10494;50.868;4.180;2023-04-01T23:02:30;8.80;99.90
20670;DHT22;10494;50.868;4.180;2023-04-01T23:05:00;8.80;99.90
20670;DHT22;10494;50.868;4.180;2023-04-01T23:10:05;8.80;99.90
20670;DHT22;10494;50.868;4.180;2023-04-01T23:12:38;8.80;99.90
20670;DHT22;10494;50.868;4.180;2023-04-01T23:15:12;8.80;99.90
20670;DHT22;10494;50.868;4.180;2023-04-01T23:18:44;8.80;99.90
20670;DHT22;10494;50.868;4.180;2023-04-01T23:34:02;8.80;99.90
20670;DHT22;10494;50.868;4.180;2023-04-01T23:36:30;8.80;99.90
20670;DHT22;10494;50.868;4.180;2023-04-01T23:38:56;8.80;99.90
20670;DHT22;10494;50.868;4.180;2023-04-01T23:41:30;8.80;99.90
20670;DHT22;10494;50.868;4.180;2023-04-01T23:44:07;8.80;99.90
20670;DHT22;10494;50.868;4.180;2023-04-01T23:46:34;8.70;99.90
20670;DHT22;10494;50.868;4.180;2023-04-01T23:49:01;8.70;99.90
20670;DHT22;10494;50.868;4.180;2023-04-01T23:51:35;8.70;99.90
20670;DHT22;10494;50.868;4.180;2023-04-01T23:54:26;8.60;99.90
20670;DHT22;10494;50.868;4.180;2023-04-01T23:56:55;8.60;99.90
20670;DHT22;10494;50.868;4.180;2023-04-01T23:59:28;8.60;99.90
